createdAt,value
2017-11-04T00:00:58.185Z,4.32
2017-11-04T00:03:26.157Z,4.27
2017-11-04T00:05:53.626Z,4.20
2017-11-04T00:08:21.092Z,4.18
2017-11-04T00:10:48.568Z,4.14
2017-11-04T00:13:16.040Z,4.11
2017-11-04T00:15:43.583Z,4.09
2017-11-04T00:18:11.050Z,4.05
2017-11-04T00:20:38.501Z,4.00
2017-11-04T00:23:05.971Z,3.97
2017-11-04T00:25:33.444Z,4.00
2017-11-04T00:28:00.925Z,4.00
2017-11-04T00:30:28.403Z,3.95
2017-11-04T00:32:55.892Z,3.92
2017-11-04T00:35:23.353Z,3.91
2017-11-04T00:37:50.812Z,3.97
2017-11-04T00:40:18.329Z,4.02
2017-11-04T00:42:46.093Z,4.05
2017-11-04T00:45:13.589Z,4.02
2017-11-04T00:47:41.070Z,3.99
2017-11-04T00:50:08.522Z,4.00
2017-11-04T00:52:36.004Z,4.03
2017-11-04T00:55:03.497Z,4.01
2017-11-04T00:57:30.977Z,3.98
2017-11-04T00:59:58.453Z,3.97
2017-11-04T01:02:25.941Z,3.95
2017-11-04T01:04:53.394Z,3.95
2017-11-04T01:07:20.854Z,4.05
2017-11-04T01:09:48.366Z,4.10
2017-11-04T01:12:15.819Z,4.07
2017-11-04T01:14:43.294Z,4.01
2017-11-04T01:17:10.779Z,3.95
2017-11-04T01:19:38.271Z,3.94
2017-11-04T01:22:05.775Z,3.94
2017-11-04T01:24:33.261Z,3.93
2017-11-04T01:27:00.712Z,3.92
2017-11-04T01:29:28.162Z,3.93
2017-11-04T01:31:55.632Z,3.91
2017-11-04T01:34:23.099Z,3.87
2017-11-04T01:36:50.567Z,3.86
2017-11-04T01:39:18.024Z,3.95
2017-11-04T01:41:45.478Z,3.95
2017-11-04T01:44:12.937Z,3.90
2017-11-04T01:46:40.439Z,3.95
2017-11-04T01:49:07.903Z,3.88
2017-11-04T01:51:35.366Z,3.84
2017-11-04T01:54:02.301Z,3.86
2017-11-04T01:56:29.762Z,3.81
2017-11-04T01:58:57.298Z,3.78
2017-11-04T02:01:24.777Z,3.78
2017-11-04T02:03:52.254Z,3.75
2017-11-04T02:06:19.798Z,3.77
2017-11-04T02:08:47.270Z,3.81
2017-11-04T02:11:14.736Z,3.85
2017-11-04T02:13:42.202Z,3.87
2017-11-04T02:16:09.674Z,3.88
2017-11-04T02:18:37.162Z,3.91
2017-11-04T02:21:04.621Z,3.94
2017-11-04T02:23:32.110Z,4.02
2017-11-04T02:25:59.586Z,4.02
2017-11-04T02:28:27.054Z,4.14
2017-11-04T02:30:54.534Z,4.24
2017-11-04T02:33:21.996Z,4.29
2017-11-04T02:35:49.448Z,4.28
2017-11-04T02:38:16.920Z,4.22
2017-11-04T02:40:44.374Z,4.21
2017-11-04T02:43:11.825Z,4.19
2017-11-04T02:45:39.333Z,4.19
2017-11-04T02:48:06.796Z,4.17
2017-11-04T02:50:34.252Z,4.18
2017-11-04T02:53:01.737Z,4.17
2017-11-04T02:55:29.202Z,4.15
2017-11-04T02:57:56.656Z,4.17
2017-11-04T03:00:24.150Z,4.11
2017-11-04T03:02:51.601Z,4.12
2017-11-04T03:05:19.093Z,4.16
2017-11-04T03:07:46.588Z,4.14
2017-11-04T03:10:14.044Z,4.11
2017-11-04T03:12:41.512Z,4.04
2017-11-04T03:15:08.999Z,4.00
2017-11-04T03:17:36.447Z,3.97
2017-11-04T03:20:03.910Z,3.93
2017-11-04T03:22:31.395Z,3.91
2017-11-04T03:24:58.842Z,3.89
2017-11-04T03:27:26.299Z,3.87
2017-11-04T03:29:53.789Z,3.82
2017-11-04T03:32:21.248Z,3.84
2017-11-04T03:34:48.794Z,3.83
2017-11-04T03:37:16.258Z,3.82
2017-11-04T03:39:43.710Z,3.85
2017-11-04T03:42:11.162Z,3.85
2017-11-04T03:44:38.645Z,3.83
2017-11-04T03:47:06.101Z,3.88
2017-11-04T03:49:33.557Z,3.89
2017-11-04T03:52:01.049Z,3.86
2017-11-04T03:54:28.522Z,3.91
2017-11-04T03:56:55.978Z,3.89
2017-11-04T03:59:23.482Z,3.85
2017-11-04T04:01:50.935Z,3.86
2017-11-04T04:04:18.446Z,3.89
2017-11-04T04:06:45.918Z,3.92
2017-11-04T04:09:13.373Z,3.88
2017-11-04T04:11:40.925Z,3.85
2017-11-04T04:14:08.401Z,3.88
2017-11-04T04:16:35.874Z,3.87
2017-11-04T04:19:03.338Z,3.90
2017-11-04T04:21:30.852Z,3.89
2017-11-04T04:23:58.301Z,3.89
2017-11-04T04:26:25.753Z,3.97
2017-11-04T04:28:53.238Z,3.98
2017-11-04T04:31:20.701Z,4.09
2017-11-04T04:33:48.163Z,4.15
2017-11-04T04:36:15.633Z,4.13
2017-11-04T04:38:43.109Z,4.17
2017-11-04T04:41:10.553Z,4.29
2017-11-04T04:43:38.033Z,4.33
2017-11-04T04:46:05.488Z,4.41
2017-11-04T04:48:32.950Z,4.55
2017-11-04T04:51:00.423Z,4.65
2017-11-04T04:53:27.886Z,4.63
2017-11-04T04:55:55.342Z,4.69
2017-11-04T04:58:22.809Z,4.72
2017-11-04T05:00:50.266Z,4.76
2017-11-04T05:03:17.719Z,4.75
2017-11-04T05:05:45.213Z,4.71
2017-11-04T05:08:12.673Z,4.80
2017-11-04T05:10:40.143Z,4.70
2017-11-04T05:13:07.635Z,4.62
2017-11-04T05:15:36.179Z,4.60
2017-11-04T05:18:03.616Z,4.59
2017-11-04T05:20:31.087Z,4.60
2017-11-04T05:22:58.562Z,4.51
2017-11-04T05:25:26.029Z,4.54
2017-11-04T05:27:53.497Z,4.48
2017-11-04T05:30:20.967Z,4.47
2017-11-04T05:32:48.416Z,4.50
2017-11-04T05:35:15.908Z,4.48
2017-11-04T05:37:43.364Z,4.47
2017-11-04T05:40:10.829Z,4.50
2017-11-04T05:42:38.346Z,4.63
2017-11-04T05:45:05.805Z,4.63
2017-11-04T05:47:33.263Z,4.63
2017-11-04T05:50:00.770Z,4.59
2017-11-04T05:52:28.233Z,4.61
2017-11-04T05:54:55.696Z,4.62
2017-11-04T05:57:23.164Z,4.57
2017-11-04T05:59:50.638Z,4.54
2017-11-04T06:02:18.109Z,4.56
2017-11-04T06:04:45.589Z,4.55
2017-11-04T06:07:13.044Z,4.61
2017-11-04T06:09:40.514Z,4.69
2017-11-04T06:12:08.023Z,4.70
2017-11-04T06:14:35.492Z,4.78
2017-11-04T06:17:02.951Z,4.80
2017-11-04T06:19:30.419Z,4.91
2017-11-04T06:21:57.880Z,4.97
2017-11-04T06:24:25.348Z,5.13
2017-11-04T06:26:52.897Z,5.16
2017-11-04T06:29:20.407Z,5.28
2017-11-04T06:31:47.862Z,5.40
2017-11-04T06:34:15.369Z,5.42
2017-11-04T06:36:42.833Z,5.50
2017-11-04T06:39:10.291Z,5.53
2017-11-04T06:41:37.774Z,5.52
2017-11-04T06:44:05.247Z,5.53
2017-11-04T06:46:32.734Z,5.54
2017-11-04T06:49:00.196Z,5.62
2017-11-04T06:51:27.684Z,5.71
2017-11-04T06:53:55.206Z,5.78
2017-11-04T06:56:22.666Z,5.80
2017-11-04T06:58:50.328Z,5.79
2017-11-04T07:01:17.797Z,5.80
2017-11-04T07:03:45.278Z,5.83
2017-11-04T07:06:12.737Z,5.95
2017-11-04T07:08:40.290Z,6.10
2017-11-04T07:11:07.773Z,6.16
2017-11-04T07:13:35.234Z,6.36
2017-11-04T07:16:02.702Z,6.36
2017-11-04T07:18:30.182Z,6.42
2017-11-04T07:20:57.635Z,6.51
2017-11-04T07:23:25.093Z,6.55
2017-11-04T07:25:52.569Z,6.63
2017-11-04T07:28:20.020Z,6.67
2017-11-04T07:30:47.475Z,6.73
2017-11-04T07:33:14.946Z,6.82
2017-11-04T07:35:42.412Z,7.04
2017-11-04T07:38:09.869Z,7.13
2017-11-04T07:40:37.332Z,7.25
2017-11-04T07:43:04.791Z,7.33
2017-11-04T07:45:32.255Z,7.36
2017-11-04T07:47:59.756Z,7.44
2017-11-04T07:50:27.213Z,7.56
2017-11-04T07:52:54.742Z,7.64
2017-11-04T07:55:22.228Z,7.76
2017-11-04T07:57:49.697Z,7.85
2017-11-04T08:00:17.149Z,7.95
2017-11-04T08:02:44.636Z,8.10
2017-11-04T08:05:12.090Z,8.28
2017-11-04T08:07:39.558Z,8.38
2017-11-04T08:10:07.027Z,8.49
2017-11-04T08:12:34.499Z,8.61
2017-11-04T08:15:01.962Z,8.78
2017-11-04T08:17:29.463Z,8.91
2017-11-04T08:19:56.916Z,9.01
2017-11-04T08:22:24.398Z,9.13
2017-11-04T08:24:51.884Z,9.26
2017-11-04T08:27:19.376Z,9.37
2017-11-04T08:29:46.832Z,9.47
2017-11-04T08:32:14.329Z,9.64
2017-11-04T08:34:41.819Z,9.69
2017-11-04T08:37:09.274Z,9.74
2017-11-04T08:39:36.764Z,9.82
2017-11-04T08:42:04.250Z,9.89
2017-11-04T08:44:31.717Z,10.02
2017-11-04T08:46:59.230Z,10.11
2017-11-04T08:49:26.698Z,10.27
2017-11-04T08:51:54.165Z,10.37
2017-11-04T08:54:21.673Z,10.46
2017-11-04T08:56:49.134Z,10.46
2017-11-04T08:59:16.611Z,10.56
2017-11-04T09:01:44.088Z,10.72
2017-11-04T09:04:15.342Z,10.81
2017-11-04T09:06:42.861Z,10.88
2017-11-04T09:09:10.358Z,11.07
2017-11-04T09:11:37.829Z,11.06
2017-11-04T09:14:05.295Z,11.28
2017-11-04T09:16:32.787Z,11.54
2017-11-04T09:19:00.924Z,11.53
2017-11-04T09:21:28.393Z,11.54
2017-11-04T09:23:55.897Z,11.57
2017-11-04T09:26:23.396Z,11.84
2017-11-04T09:28:50.897Z,11.91
2017-11-04T09:31:18.363Z,12.00
2017-11-04T09:33:45.820Z,12.14
2017-11-04T09:36:13.297Z,12.23
2017-11-04T09:38:40.775Z,12.32
2017-11-04T09:41:08.241Z,12.51
2017-11-04T09:43:35.709Z,12.49
2017-11-04T09:46:03.227Z,12.62
2017-11-04T09:48:30.697Z,12.73
2017-11-04T09:50:58.183Z,12.80
2017-11-04T09:53:25.681Z,12.83
2017-11-04T09:55:53.169Z,12.91
2017-11-04T09:58:20.630Z,13.05
2017-11-04T10:00:48.154Z,13.08
2017-11-04T10:03:15.611Z,13.11
2017-11-04T10:05:43.116Z,13.18
2017-11-04T10:08:10.607Z,13.26
2017-11-04T10:10:38.063Z,13.31
2017-11-04T10:13:05.552Z,13.26
2017-11-04T10:15:33.050Z,13.31
2017-11-04T10:18:00.519Z,13.38
2017-11-04T10:20:27.974Z,13.41
2017-11-04T10:22:55.467Z,13.57
2017-11-04T10:25:22.949Z,13.62
2017-11-04T10:27:50.406Z,13.73
2017-11-04T10:30:17.912Z,13.83
2017-11-04T10:32:45.391Z,13.85
2017-11-04T10:35:12.878Z,13.99
2017-11-04T10:37:40.350Z,14.14
2017-11-04T10:40:07.804Z,14.18
2017-11-04T10:42:42.168Z,14.27
2017-11-04T10:45:09.648Z,14.13
2017-11-04T10:47:37.134Z,14.26
2017-11-04T10:50:05.116Z,14.40
2017-11-04T10:52:32.584Z,14.48
2017-11-04T10:55:00.054Z,14.43
2017-11-04T10:57:27.533Z,14.66
2017-11-04T10:59:55.025Z,14.79
2017-11-04T11:02:22.501Z,14.69
2017-11-04T11:04:49.982Z,14.76
2017-11-04T11:07:17.499Z,15.01
2017-11-04T11:09:44.947Z,14.99
2017-11-04T11:12:12.436Z,15.07
2017-11-04T11:14:39.981Z,15.08
2017-11-04T11:17:07.515Z,15.21
2017-11-04T11:19:34.997Z,15.24
2017-11-04T11:22:02.469Z,15.37
2017-11-04T11:24:29.965Z,15.34
2017-11-04T11:26:57.457Z,15.30
2017-11-04T11:29:24.911Z,15.41
2017-11-04T11:31:52.374Z,15.56
2017-11-04T11:34:19.869Z,15.51
2017-11-04T11:36:47.349Z,15.53
2017-11-04T11:39:14.832Z,15.49
2017-11-04T11:41:42.333Z,15.61
2017-11-04T11:44:09.815Z,15.61
2017-11-04T11:46:37.323Z,15.59
2017-11-04T11:49:04.797Z,15.77
2017-11-04T11:51:32.357Z,15.73
2017-11-04T11:53:59.842Z,15.60
2017-11-04T11:56:27.313Z,15.63
2017-11-04T11:58:54.841Z,15.56
2017-11-04T12:01:22.354Z,15.52
2017-11-04T12:03:49.820Z,15.69
2017-11-04T12:06:17.293Z,15.74
2017-11-04T12:08:44.760Z,15.64
2017-11-04T12:11:12.349Z,15.73
2017-11-04T12:13:39.845Z,15.83
2017-11-04T12:16:07.300Z,15.89
2017-11-04T12:18:34.807Z,15.84
2017-11-04T12:21:02.806Z,15.89
2017-11-04T12:23:30.269Z,15.89
2017-11-04T12:25:57.757Z,15.95
2017-11-04T12:28:25.260Z,16.03
2017-11-04T12:30:52.735Z,16.01
2017-11-04T12:33:20.198Z,15.97
2017-11-04T12:35:47.657Z,16.09
2017-11-04T12:38:15.142Z,16.05
2017-11-04T12:40:42.646Z,16.31
2017-11-04T12:43:10.109Z,16.32
2017-11-04T12:45:37.563Z,16.20
2017-11-04T12:48:05.113Z,16.19
2017-11-04T12:50:32.586Z,16.32
2017-11-04T12:53:00.039Z,16.29
2017-11-04T12:55:27.521Z,16.31
2017-11-04T12:57:54.977Z,16.32
2017-11-04T13:00:22.458Z,16.28
2017-11-04T13:02:49.946Z,16.13
2017-11-04T13:05:17.422Z,16.15
2017-11-04T13:07:44.899Z,16.22
2017-11-04T13:10:12.371Z,16.27
2017-11-04T13:12:39.982Z,16.30
2017-11-04T13:15:07.458Z,16.38
2017-11-04T13:17:34.950Z,16.51
2017-11-04T13:20:02.417Z,16.50
2017-11-04T13:22:29.905Z,16.61
2017-11-04T13:24:57.365Z,16.52
2017-11-04T13:27:24.834Z,16.52
2017-11-04T13:29:52.297Z,16.46
2017-11-04T13:32:19.792Z,16.36
2017-11-04T13:34:47.264Z,16.48
2017-11-04T13:37:14.717Z,16.45
2017-11-04T13:39:42.225Z,16.44
2017-11-04T13:42:09.683Z,16.34
2017-11-04T13:44:37.139Z,16.41
2017-11-04T13:47:04.621Z,16.39
2017-11-04T13:49:32.121Z,16.42
2017-11-04T13:51:59.583Z,16.38
2017-11-04T13:54:27.089Z,16.55
2017-11-04T13:56:54.555Z,16.52
2017-11-04T13:59:22.018Z,16.12
2017-11-04T14:01:49.533Z,16.23
2017-11-04T14:04:16.993Z,16.20
2017-11-04T14:06:44.495Z,16.07
2017-11-04T14:09:11.961Z,15.89
2017-11-04T14:11:39.551Z,15.87
2017-11-04T14:14:07.033Z,15.81
2017-11-04T14:16:34.522Z,15.63
2017-11-04T14:19:01.993Z,15.77
2017-11-04T14:21:29.458Z,15.64
2017-11-04T14:23:56.974Z,15.57
2017-11-04T14:26:24.453Z,15.38
2017-11-04T14:28:51.943Z,15.11
2017-11-04T14:31:19.574Z,14.97
2017-11-04T14:33:47.136Z,15.10
2017-11-04T14:36:14.622Z,14.86
2017-11-04T14:38:42.104Z,14.74
2017-11-04T14:41:09.570Z,14.44
2017-11-04T14:43:37.033Z,14.33
2017-11-04T14:46:04.514Z,14.31
2017-11-04T14:48:31.980Z,14.20
2017-11-04T14:50:59.501Z,13.98
2017-11-04T14:53:26.988Z,13.90
2017-11-04T14:55:54.442Z,13.84
2017-11-04T14:58:21.922Z,13.77
2017-11-04T15:00:49.417Z,13.66
2017-11-04T15:03:16.887Z,13.56
2017-11-04T15:05:44.373Z,13.38
2017-11-04T15:08:11.871Z,13.26
2017-11-04T15:10:39.341Z,13.12
2017-11-04T15:13:06.804Z,12.95
2017-11-04T15:15:34.336Z,12.78
2017-11-04T15:18:01.797Z,12.71
2017-11-04T15:20:29.266Z,12.59
2017-11-04T15:22:56.760Z,12.51
2017-11-04T15:25:24.233Z,12.33
2017-11-04T15:27:51.699Z,12.21
2017-11-04T15:30:19.258Z,12.13
2017-11-04T15:32:46.715Z,12.02
2017-11-04T15:35:14.176Z,11.89
2017-11-04T15:37:41.646Z,11.84
2017-11-04T15:40:09.120Z,11.74
2017-11-04T15:42:36.611Z,11.69
2017-11-04T15:45:04.085Z,11.62
2017-11-04T15:47:31.548Z,11.51
2017-11-04T15:49:59.013Z,11.42
2017-11-04T15:52:26.531Z,11.33
2017-11-04T15:54:53.991Z,11.27
2017-11-04T15:57:21.475Z,11.19
2017-11-04T15:59:48.994Z,11.26
2017-11-04T16:02:16.660Z,11.21
2017-11-04T16:04:44.140Z,11.16
2017-11-04T16:07:11.610Z,11.14
2017-11-04T16:09:39.093Z,11.14
2017-11-04T16:12:06.561Z,11.18
2017-11-04T16:14:34.057Z,11.07
2017-11-04T16:17:01.688Z,11.03
2017-11-04T16:19:29.149Z,11.08
2017-11-04T16:21:56.679Z,11.06
2017-11-04T16:24:24.141Z,11.14
2017-11-04T16:26:51.811Z,11.05
2017-11-04T16:29:19.334Z,11.00
2017-11-04T16:31:46.797Z,10.89
2017-11-04T16:34:14.313Z,10.87
2017-11-04T16:36:41.818Z,10.88
2017-11-04T16:39:09.292Z,10.76
2017-11-04T16:41:36.826Z,10.64
2017-11-04T16:44:04.338Z,10.62
2017-11-04T16:46:31.824Z,10.58
2017-11-04T16:48:59.299Z,10.60
2017-11-04T16:51:26.774Z,10.57
2017-11-04T16:53:54.244Z,10.46
2017-11-04T16:56:21.704Z,10.35
2017-11-04T16:58:49.184Z,10.31
2017-11-04T17:01:16.651Z,10.47
2017-11-04T17:03:44.132Z,10.37
2017-11-04T17:06:11.644Z,10.34
2017-11-04T17:08:39.133Z,10.36
2017-11-04T17:11:06.622Z,10.31
2017-11-04T17:13:34.139Z,10.31
2017-11-04T17:16:01.613Z,10.25
2017-11-04T17:18:29.086Z,10.26
2017-11-04T17:20:56.590Z,10.31
2017-11-04T17:23:24.091Z,10.23
2017-11-04T17:25:51.562Z,10.18
2017-11-04T17:28:19.043Z,10.07
2017-11-04T17:30:46.502Z,10.06
2017-11-04T17:33:13.989Z,10.01
2017-11-04T17:35:41.489Z,9.93
2017-11-04T17:38:08.975Z,9.91
2017-11-04T17:40:36.488Z,9.91
2017-11-04T17:43:03.983Z,9.90
2017-11-04T17:45:31.457Z,9.87
2017-11-04T17:47:58.917Z,9.81
2017-11-04T17:50:26.399Z,9.77
2017-11-04T17:52:53.856Z,9.68
2017-11-04T17:55:21.314Z,9.61
2017-11-04T17:57:48.847Z,9.58
2017-11-04T18:00:16.298Z,9.56
2017-11-04T18:02:43.773Z,9.66
2017-11-04T18:05:11.255Z,9.67
2017-11-04T18:07:38.733Z,9.65
2017-11-04T18:10:06.201Z,9.60
2017-11-04T18:12:33.691Z,9.47
2017-11-04T18:15:01.177Z,9.44
2017-11-04T18:17:28.652Z,9.42
2017-11-04T18:19:56.123Z,9.41
2017-11-04T18:22:23.657Z,9.39
2017-11-04T18:24:51.214Z,9.43
2017-11-04T18:27:18.723Z,9.44
2017-11-04T18:29:46.254Z,9.35
2017-11-04T18:32:13.751Z,9.34
2017-11-04T18:34:41.341Z,9.37
2017-11-04T18:37:08.811Z,9.31
2017-11-04T18:39:36.327Z,9.21
2017-11-04T18:42:03.826Z,9.16
2017-11-04T18:44:31.317Z,9.12
2017-11-04T18:46:58.852Z,9.06
2017-11-04T18:49:26.340Z,9.03
2017-11-04T18:51:53.841Z,9.10
2017-11-04T18:54:21.410Z,9.12
2017-11-04T18:56:48.956Z,9.12
2017-11-04T18:59:16.444Z,9.12
2017-11-04T19:01:43.984Z,9.06
2017-11-04T19:04:11.478Z,9.07
2017-11-04T19:06:39.021Z,9.03
2017-11-04T19:09:06.562Z,9.02
2017-11-04T19:11:34.058Z,8.98
2017-11-04T19:14:01.542Z,8.89
2017-11-04T19:16:29.041Z,9.00
2017-11-04T19:18:57.052Z,8.92
2017-11-04T19:21:24.539Z,8.88
2017-11-04T19:23:52.021Z,8.92
2017-11-04T19:26:19.511Z,8.83
2017-11-04T19:28:47.121Z,8.73
2017-11-04T19:31:14.664Z,8.67
2017-11-04T19:33:42.160Z,8.62
2017-11-04T19:36:09.649Z,8.55
2017-11-04T19:38:37.151Z,8.53
2017-11-04T19:41:04.711Z,8.48
2017-11-04T19:43:32.206Z,8.53
2017-11-04T19:45:59.718Z,8.53
2017-11-04T19:48:27.208Z,8.52
2017-11-04T19:50:54.719Z,8.54
2017-11-04T19:53:22.212Z,8.51
2017-11-04T19:55:49.760Z,8.45
2017-11-04T19:58:17.286Z,8.39
2017-11-04T20:00:44.803Z,8.36
2017-11-04T20:03:12.289Z,8.37
2017-11-04T20:05:39.781Z,8.34
2017-11-04T20:08:07.266Z,8.29
2017-11-04T20:10:34.805Z,8.25
2017-11-04T20:13:02.301Z,8.27
2017-11-04T20:15:29.855Z,8.36
2017-11-04T20:17:57.400Z,8.42
2017-11-04T20:20:24.902Z,8.36
2017-11-04T20:22:52.459Z,8.36
2017-11-04T20:25:19.958Z,8.29
2017-11-04T20:27:47.468Z,8.24
2017-11-04T20:30:15.046Z,8.19
2017-11-04T20:32:42.558Z,8.13
2017-11-04T20:35:10.064Z,8.10
2017-11-04T20:37:37.558Z,8.14
2017-11-04T20:40:05.048Z,8.12
2017-11-04T20:42:32.524Z,8.15
2017-11-04T20:45:00.041Z,8.15
2017-11-04T20:47:27.533Z,8.13
2017-11-04T20:49:55.066Z,8.14
2017-11-04T20:52:22.559Z,8.18
2017-11-04T20:54:50.051Z,8.21
2017-11-04T20:57:17.547Z,8.18
2017-11-04T20:59:45.025Z,8.15
2017-11-04T21:02:12.531Z,8.08
2017-11-04T21:04:40.036Z,8.04
2017-11-04T21:07:07.519Z,8.04
2017-11-04T21:09:35.025Z,8.04
2017-11-04T21:12:02.518Z,8.06
2017-11-04T21:14:30.045Z,8.05
2017-11-04T21:16:57.551Z,8.02
2017-11-04T21:19:25.050Z,8.00
2017-11-04T21:21:52.537Z,7.97
2017-11-04T21:24:20.124Z,8.04
2017-11-04T21:26:47.606Z,7.97
2017-11-04T21:29:15.090Z,7.94
2017-11-04T21:31:42.602Z,7.91
2017-11-04T21:34:10.137Z,8.00
2017-11-04T21:36:37.747Z,7.92
2017-11-04T21:39:05.241Z,7.95
2017-11-04T21:41:32.764Z,7.91
2017-11-04T21:44:00.252Z,7.85
2017-11-04T21:46:27.783Z,7.85
2017-11-04T21:48:55.285Z,7.92
2017-11-04T21:51:22.803Z,7.90
2017-11-04T21:53:50.298Z,7.91
2017-11-04T21:56:23.354Z,7.96
2017-11-04T21:58:51.017Z,7.93
2017-11-04T22:01:18.506Z,7.89
2017-11-04T22:03:46.008Z,7.95
2017-11-04T22:06:13.503Z,8.03
2017-11-04T22:08:41.039Z,8.01
2017-11-04T22:11:08.525Z,8.03
2017-11-04T22:13:36.758Z,8.02
2017-11-04T22:16:04.275Z,7.93
2017-11-04T22:18:31.855Z,7.86
2017-11-04T22:20:59.353Z,7.78
2017-11-04T22:23:26.847Z,7.76
2017-11-04T22:25:54.362Z,7.74
2017-11-04T22:28:21.876Z,7.78
2017-11-04T22:30:49.378Z,7.76
2017-11-04T22:33:16.892Z,7.69
2017-11-04T22:35:44.417Z,7.65
2017-11-04T22:38:11.903Z,7.67
2017-11-04T22:40:39.413Z,7.73
2017-11-04T22:43:06.926Z,7.74
2017-11-04T22:45:34.432Z,7.68
2017-11-04T22:48:01.931Z,7.65
2017-11-04T22:50:29.442Z,7.58
2017-11-04T22:52:56.950Z,7.62
2017-11-04T22:55:25.271Z,7.67
2017-11-04T22:57:52.784Z,7.67
2017-11-04T23:00:20.282Z,7.69
2017-11-04T23:02:47.766Z,7.67
2017-11-04T23:05:15.254Z,7.72
2017-11-04T23:07:42.786Z,7.69
2017-11-04T23:10:10.287Z,7.61
2017-11-04T23:12:37.806Z,7.55
2017-11-04T23:15:05.308Z,7.52
2017-11-04T23:17:32.786Z,7.47
2017-11-04T23:20:00.279Z,7.46
2017-11-04T23:22:27.965Z,7.45
2017-11-04T23:24:55.494Z,7.44
2017-11-04T23:27:22.998Z,7.42
2017-11-04T23:29:50.539Z,7.43
2017-11-04T23:32:18.221Z,7.42
2017-11-04T23:34:45.908Z,7.38
2017-11-04T23:37:13.427Z,7.36
2017-11-04T23:39:40.917Z,7.39
2017-11-04T23:42:08.396Z,7.37
2017-11-04T23:44:35.890Z,7.41
2017-11-04T23:47:03.377Z,7.41
2017-11-04T23:49:30.853Z,7.41
2017-11-04T23:51:58.343Z,7.39
2017-11-04T23:54:25.850Z,7.34
2017-11-04T23:56:54.193Z,7.33
2017-11-04T23:59:21.678Z,7.35
